Time;durP1;ratioP1;P1;durP2;ratioP2;P2;SDS_P1;SDS_P2;PMS_P1;PMS_P2;Temp;Humidity;BMP_temperature;BMP_pressure;BME280_temperature;BME280_humidity;BME280_pressure;Samples;Min_cycle;Max_cycle;Signal;HPM_P1;HPM_P2
2023/05/01 00:00:58;;;;;;;9.80;9.00;;;10.50;99.90;;;;;;5001576;28;20193;-80
2023/05/01 00:03:25;;;;;;;10.37;9.47;;;10.50;99.90;;;;;;5022753;28;20208;-79
2023/05/01 00:06:00;;;;;;;10.67;9.77;;;10.50;99.90;;;;;;5023528;28;20201;-80
2023/05/01 00:08:26;;;;;;;10.60;9.80;;;10.50;99.90;;;;;;5023220;28;20221;-80
2023/05/01 00:10:53;;;;;;;10.43;9.63;;;10.40;99.90;;;;;;5013165;28;20224;-79
2023/05/01 00:13:23;;;;;;;10.53;9.73;;;10.40;99.90;;;;;;5009933;28;20193;-80
2023/05/01 00:15:50;;;;;;;10.63;9.83;;;10.40;99.90;;;;;;5023172;28;20620;-79
2023/05/01 00:18:18;;;;;;;10.67;9.77;;;10.40;99.90;;;;;;5023546;28;20224;-79
2023/05/01 00:20:45;;;;;;;11.13;10.23;;;10.30;99.90;;;;;;5005288;28;20223;-79
2023/05/01 00:23:12;;;;;;;10.53;9.73;;;10.30;99.90;;;;;;5009272;28;20755;-80
2023/05/01 00:25:39;;;;;;;10.30;9.50;;;10.30;99.90;;;;;;5023250;28;20208;-79
2023/05/01 00:28:06;;;;;;;10.27;9.50;;;10.20;99.90;;;;;;5005543;28;20644;-81
2023/05/01 00:30:33;;;;;;;10.83;9.97;;;10.20;99.90;;;;;;5024042;28;20216;-80
2023/05/01 00:33:00;;;;;;;11.27;10.37;;;10.20;99.90;;;;;;5011522;28;20202;-79
2023/05/01 00:35:30;;;;;;;10.50;9.80;;;10.20;99.90;;;;;;5033562;28;20201;-79
2023/05/01 00:37:57;;;;;;;10.87;10.07;;;10.30;99.90;;;;;;5037272;28;20216;-79
2023/05/01 00:40:24;;;;;;;11.17;10.37;;;10.30;99.90;;;;;;5004868;28;20207;-80
2023/05/01 00:42:50;;;;;;;11.43;10.53;;;10.30;99.90;;;;;;5037377;28;20208;-80
2023/05/01 00:45:17;;;;;;;11.67;10.87;;;10.30;99.90;;;;;;5004038;28;20197;-80
2023/05/01 00:47:44;;;;;;;10.37;9.60;;;10.30;99.90;;;;;;5032336;28;20641;-79
2023/05/01 00:50:12;;;;;;;11.17;10.27;;;10.30;99.90;;;;;;5003941;28;20724;-80
2023/05/01 00:52:40;;;;;;;11.73;10.83;;;10.30;99.90;;;;;;5030724;28;20686;-79
2023/05/01 00:55:08;;;;;;;11.47;10.60;;;10.30;99.90;;;;;;5009449;28;20200;-80
2023/05/01 00:57:35;;;;;;;11.43;10.53;;;10.30;99.90;;;;;;5004558;28;20230;-79
2023/05/01 01:00:04;;;;;;;11.10;10.30;;;10.30;99.90;;;;;;5032497;28;20640;-79
2023/05/01 01:02:31;;;;;;;11.10;10.30;;;10.30;99.90;;;;;;5004422;28;20731;-79
2023/05/01 01:04:58;;;;;;;11.57;10.57;;;10.30;99.90;;;;;;5028762;28;20203;-79
2023/05/01 01:07:34;;;;;;;11.60;10.70;;;10.30;99.90;;;;;;5022353;28;20217;-80
2023/05/01 01:10:13;;;;;;;11.40;10.50;;;10.30;99.90;;;;;;5022417;28;20193;-80
2023/05/01 01:12:52;;;;;;;10.97;10.17;;;10.30;99.90;;;;;;5004200;28;20209;-79
2023/05/01 01:15:27;;;;;;;11.87;10.87;;;10.30;99.90;;;;;;5004337;28;20200;-79
2023/05/01 01:18:04;;;;;;;11.80;10.80;;;10.30;99.90;;;;;;5018630;28;20242;-79
2023/05/01 01:20:36;;;;;;;12.20;11.27;;;10.30;99.90;;;;;;5004128;28;20232;-79
2023/05/01 01:23:24;;;;;;;11.27;10.47;;;10.30;99.90;;;;;;5037239;28;20264;-80
2023/05/01 01:26:09;;;;;;;11.77;10.87;;;10.30;99.90;;;;;;5021422;28;20216;-80
2023/05/01 01:29:17;;;;;;;12.00;11.10;;;10.30;99.90;;;;;;5004623;28;20714;-80
2023/05/01 01:31:57;;;;;;;11.37;10.40;;;10.30;99.90;;;;;;5011756;28;20231;-80
2023/05/01 01:34:33;;;;;;;12.10;11.10;;;10.30;99.90;;;;;;5022485;28;20677;-78
2023/05/01 01:37:04;;;;;;;12.07;11.17;;;10.30;99.90;;;;;;5004614;28;20718;-79
2023/05/01 01:39:41;;;;;;;12.20;11.20;;;10.30;99.90;;;;;;4975868;28;1072213;-80
2023/05/01 01:42:15;;;;;;;8.23;7.43;;;10.30;99.90;;;;;;5013672;28;20201;-79
2023/05/01 01:44:52;;;;;;;8.50;7.70;;;10.30;99.90;;;;;;5021390;28;20250;-80
2023/05/01 01:47:21;;;;;;;7.80;7.10;;;10.30;99.90;;;;;;5005066;28;20220;-79
2023/05/01 01:49:52;;;;;;;8.73;7.20;;;10.30;99.90;;;;;;5005332;28;20213;-79
2023/05/01 01:52:21;;;;;;;8.17;7.47;;;10.30;99.90;;;;;;5033303;28;20614;-80
2023/05/01 01:54:52;;;;;;;8.23;7.43;;;10.30;99.90;;;;;;5023000;28;20661;-80
2023/05/01 01:57:21;;;;;;;6.40;5.80;;;10.30;99.90;;;;;;5035517;28;20637;-80
2023/05/01 01:59:50;;;;;;;7.57;6.00;;;10.30;99.90;;;;;;5005101;28;20197;-80
2023/05/01 02:02:19;;;;;;;6.60;5.77;;;10.30;99.90;;;;;;5005497;28;20197;-80
2023/05/01 02:04:47;;;;;;;7.80;6.47;;;10.30;99.90;;;;;;5013777;28;20245;-79
2023/05/01 02:07:18;;;;;;;6.60;5.90;;;10.30;99.90;;;;;;5006058;28;20225;-79
2023/05/01 02:09:46;;;;;;;6.87;6.17;;;10.30;99.90;;;;;;5030875;28;20208;-80
2023/05/01 02:12:15;;;;;;;6.93;6.07;;;10.40;99.90;;;;;;5030290;28;20218;-80
2023/05/01 02:14:42;;;;;;;6.90;6.17;;;10.30;99.90;;;;;;5005468;28;20209;-79
2023/05/01 02:17:10;;;;;;;6.70;5.93;;;10.30;99.90;;;;;;5005010;28;20217;-80
2023/05/01 02:19:39;;;;;;;7.10;6.40;;;10.30;99.90;;;;;;5004946;28;20201;-79
2023/05/01 02:22:07;;;;;;;6.27;5.67;;;10.30;99.90;;;;;;5005753;28;20630;-80
2023/05/01 02:24:38;;;;;;;6.47;5.50;;;10.30;99.90;;;;;;5005058;28;20209;-79
2023/05/01 02:27:17;;;;;;;6.50;5.90;;;10.30;99.90;;;;;;5004973;28;20312;-81
2023/05/01 02:29:44;;;;;;;6.13;5.53;;;10.30;99.90;;;;;;5005118;28;20299;-79
2023/05/01 02:32:11;;;;;;;6.30;5.57;;;10.30;99.90;;;;;;5005065;28;20263;-79
2023/05/01 02:34:38;;;;;;;5.80;4.97;;;10.40;99.90;;;;;;5005183;28;20201;-79
2023/05/01 02:37:07;;;;;;;5.90;5.30;;;10.40;99.90;;;;;;5005999;28;20222;-80
2023/05/01 02:39:36;;;;;;;6.30;5.67;;;10.40;99.90;;;;;;5006223;28;20236;-80
2023/05/01 02:42:06;;;;;;;7.03;6.20;;;10.40;99.90;;;;;;5004413;28;20192;-83
2023/05/01 02:44:38;;;;;;;6.43;5.80;;;10.30;99.90;;;;;;5032153;28;20204;-79
2023/05/01 02:47:07;;;;;;;8.37;5.97;;;10.30;99.90;;;;;;5003932;28;20285;-80
2023/05/01 02:49:36;;;;;;;6.50;5.80;;;10.40;99.90;;;;;;5004281;28;20642;-81
2023/05/01 02:52:04;;;;;;;6.70;5.63;;;10.30;99.90;;;;;;5014139;28;20223;-81
2023/05/01 02:54:31;;;;;;;6.10;5.57;;;10.40;99.90;;;;;;5006706;28;20288;-78
2023/05/01 02:57:04;;;;;;;6.60;5.73;;;10.40;99.90;;;;;;5016454;28;20230;-81
2023/05/01 02:59:31;;;;;;;7.57;6.47;;;10.30;99.90;;;;;;5014254;28;20268;-82
2023/05/01 03:02:00;;;;;;;6.50;5.43;;;10.30;99.90;;;;;;5018011;28;20205;-82
2023/05/01 03:04:26;;;;;;;6.10;5.53;;;10.30;99.90;;;;;;5000305;28;20196;-81
2023/05/01 03:06:53;;;;;;;6.20;5.60;;;10.30;99.90;;;;;;5009053;28;20232;-82
2023/05/01 03:09:20;;;;;;;8.57;7.77;;;10.30;99.90;;;;;;5008528;28;20200;-81
2023/05/01 03:11:47;;;;;;;8.43;7.73;;;10.30;99.90;;;;;;5010738;28;20614;-80
2023/05/01 03:14:15;;;;;;;8.53;7.53;;;10.30;99.90;;;;;;4986099;28;20225;-80
2023/05/01 03:16:43;;;;;;;8.23;7.50;;;10.30;99.90;;;;;;5008214;28;20207;-80
2023/05/01 03:19:10;;;;;;;8.57;7.77;;;10.30;99.90;;;;;;5014914;28;20202;-81
2023/05/01 03:21:38;;;;;;;9.20;8.40;;;10.30;99.90;;;;;;4997264;28;20295;-81
2023/05/01 03:24:05;;;;;;;10.50;9.60;;;10.30;99.90;;;;;;4997042;28;20629;-81
2023/05/01 03:26:32;;;;;;;10.37;9.47;;;10.30;99.90;;;;;;4997033;28;20204;-80
2023/05/01 03:28:58;;;;;;;10.20;9.30;;;10.40;99.90;;;;;;4996953;28;20661;-81
2023/05/01 03:31:28;;;;;;;9.93;9.13;;;10.30;99.90;;;;;;4996810;28;20632;-81
2023/05/01 03:33:56;;;;;;;10.47;9.57;;;10.30;99.90;;;;;;4996339;28;20197;-80
2023/05/01 03:36:23;;;;;;;10.37;9.50;;;10.30;99.90;;;;;;5014219;28;20202;-80
2023/05/01 03:38:51;;;;;;;10.87;9.97;;;10.30;99.90;;;;;;4998103;28;20292;-81
2023/05/01 03:41:50;;;;;;;10.00;9.20;;;10.30;99.90;;;;;;5006831;28;20307;-80
2023/05/01 03:44:24;;;;;;;10.27;9.40;;;10.30;99.90;;;;;;5005233;28;20213;-82
2023/05/01 03:46:52;;;;;;;10.33;9.53;;;10.30;99.90;;;;;;5017836;28;20208;-80
2023/05/01 03:49:25;;;;;;;10.67;9.77;;;10.30;99.90;;;;;;5000039;28;20251;-77
2023/05/01 03:51:52;;;;;;;11.23;10.33;;;10.20;99.90;;;;;;4998524;28;20212;-77
2023/05/01 03:54:19;;;;;;;11.87;10.80;;;10.30;99.90;;;;;;5016350;28;20225;-77
2023/05/01 03:56:57;;;;;;;12.00;11.10;;;10.30;99.90;;;;;;4994758;28;20220;-77
2023/05/01 03:59:24;;;;;;;12.33;11.23;;;10.30;99.90;;;;;;5008693;28;20196;-77
2023/05/01 04:01:52;;;;;;;11.23;10.33;;;10.20;99.90;;;;;;5006898;28;20610;-77
2023/05/01 04:04:20;;;;;;;7.40;6.03;;;10.30;99.90;;;;;;5009783;28;20211;-78
2023/05/01 04:06:53;;;;;;;6.80;6.10;;;10.30;99.90;;;;;;5012772;28;20252;-77
2023/05/01 04:09:20;;;;;;;8.23;7.00;;;10.30;99.90;;;;;;5013043;28;20547;-79
2023/05/01 04:11:46;;;;;;;7.07;6.37;;;10.30;99.90;;;;;;5010476;28;20224;-79
2023/05/01 04:14:13;;;;;;;7.63;6.30;;;10.30;99.90;;;;;;5015494;28;20211;-82
2023/05/01 04:16:40;;;;;;;7.23;6.33;;;10.30;99.90;;;;;;5017642;28;20212;-82
2023/05/01 04:19:09;;;;;;;7.10;6.40;;;10.30;99.90;;;;;;5020386;28;20204;-82
2023/05/01 04:21:40;;;;;;;7.33;6.60;;;10.30;99.90;;;;;;5006817;28;20620;-79
2023/05/01 04:24:07;;;;;;;7.97;6.73;;;10.20;99.90;;;;;;5001414;28;20205;-80
2023/05/01 04:26:34;;;;;;;8.23;6.33;;;10.20;99.90;;;;;;5010211;28;20196;-82
2023/05/01 04:29:01;;;;;;;7.13;6.20;;;10.20;99.90;;;;;;5018042;28;20239;-83
2023/05/01 04:31:28;;;;;;;8.30;6.50;;;10.20;99.90;;;;;;5004131;28;20245;-80
2023/05/01 04:33:55;;;;;;;7.67;6.80;;;10.20;99.90;;;;;;5008853;28;20210;-80
2023/05/01 04:36:23;;;;;;;6.87;6.17;;;10.20;99.90;;;;;;5010860;28;20205;-79
2023/05/01 04:38:50;;;;;;;8.17;6.60;;;10.20;99.90;;;;;;5039204;28;20226;-80
2023/05/01 04:41:18;;;;;;;8.30;6.87;;;10.20;99.90;;;;;;5009781;28;20292;-80
2023/05/01 04:43:46;;;;;;;8.33;6.97;;;10.20;99.90;;;;;;5009536;28;20208;-79
2023/05/01 04:46:16;;;;;;;9.43;7.37;;;10.20;99.90;;;;;;5009324;28;20631;-80
2023/05/01 04:48:43;;;;;;;8.03;7.17;;;10.10;99.90;;;;;;5015812;28;20228;-79
2023/05/01 04:51:10;;;;;;;8.63;7.30;;;10.10;99.90;;;;;;5008712;28;20197;-79
2023/05/01 04:53:38;;;;;;;9.27;7.47;;;10.10;99.90;;;;;;5009220;28;20246;-80
2023/05/01 04:56:11;;;;;;;8.10;7.13;;;10.10;99.90;;;;;;5010875;28;20513;-81
2023/05/01 04:58:39;;;;;;;8.50;7.60;;;10.20;99.90;;;;;;5010827;28;20224;-80
2023/05/01 05:01:10;;;;;;;8.70;7.80;;;10.20;99.90;;;;;;5011523;28;20193;-79
2023/05/01 05:03:37;;;;;;;9.13;7.50;;;10.20;99.90;;;;;;5011014;28;20220;-80
2023/05/01 05:06:04;;;;;;;8.87;7.97;;;10.20;99.90;;;;;;5011321;28;20261;-80
2023/05/01 05:08:31;;;;;;;8.10;7.23;;;10.10;99.90;;;;;;5010555;28;20584;-81
2023/05/01 05:11:09;;;;;;;8.10;7.23;;;10.10;99.90;;;;;;5003587;28;20199;-80
2023/05/01 05:13:49;;;;;;;9.60;8.73;;;10.10;99.90;;;;;;5035564;28;20235;-79
2023/05/01 05:16:16;;;;;;;10.03;8.70;;;10.20;99.90;;;;;;5039850;28;20193;-79
2023/05/01 05:18:43;;;;;;;9.53;8.67;;;10.20;99.90;;;;;;5008151;28;20256;-79
2023/05/01 05:21:10;;;;;;;8.87;8.07;;;10.20;99.90;;;;;;5038470;28;20250;-79
2023/05/01 05:23:39;;;;;;;10.70;9.80;;;10.30;99.90;;;;;;5039535;28;20205;-79
2023/05/01 05:26:06;;;;;;;10.27;9.37;;;10.40;99.90;;;;;;5043115;28;20201;-79
2023/05/01 05:28:34;;;;;;;10.43;9.53;;;10.40;99.90;;;;;;5010030;28;20233;-80
2023/05/01 05:31:02;;;;;;;11.70;10.63;;;10.50;99.90;;;;;;5010047;28;20190;-80
2023/05/01 05:33:29;;;;;;;10.47;9.57;;;10.60;99.90;;;;;;5009746;28;20237;-80
2023/05/01 05:35:58;;;;;;;10.90;9.80;;;10.60;99.90;;;;;;5009751;28;20206;-80
2023/05/01 05:38:28;;;;;;;10.97;9.87;;;10.60;99.90;;;;;;5009709;28;20286;-79
2023/05/01 05:40:58;;;;;;;10.87;9.87;;;10.70;99.90;;;;;;5022724;28;20206;-80
2023/05/01 05:43:25;;;;;;;11.43;10.23;;;10.70;99.90;;;;;;5009492;28;20223;-80
2023/05/01 05:45:56;;;;;;;10.90;9.90;;;10.70;99.90;;;;;;5009680;28;20194;-80
2023/05/01 05:48:23;;;;;;;11.80;10.70;;;10.80;99.90;;;;;;5008699;28;20240;-80
2023/05/01 05:50:51;;;;;;;11.60;10.60;;;10.70;99.90;;;;;;5009370;28;20296;-79
2023/05/01 05:53:18;;;;;;;12.27;11.17;;;10.80;99.90;;;;;;5025422;28;20661;-81
2023/05/01 05:55:47;;;;;;;12.87;11.47;;;10.80;99.90;;;;;;5010212;28;20212;-80
2023/05/01 05:58:18;;;;;;;11.90;10.80;;;10.80;99.90;;;;;;5017392;28;20218;-79
2023/05/01 06:00:47;;;;;;;12.90;11.00;;;10.80;99.90;;;;;;5026591;28;20198;-80
2023/05/01 06:03:16;;;;;;;11.77;10.57;;;10.80;99.90;;;;;;5040322;28;20218;-80
2023/05/01 06:05:44;;;;;;;11.53;10.33;;;10.80;99.90;;;;;;5009575;28;20201;-80
2023/05/01 06:08:13;;;;;;;11.03;9.93;;;10.90;99.90;;;;;;5040744;28;20276;-80
2023/05/01 06:10:42;;;;;;;11.57;10.47;;;11.00;99.90;;;;;;5010022;28;20241;-78
2023/05/01 06:13:09;;;;;;;11.43;10.40;;;10.90;99.90;;;;;;5026251;28;20215;-79
2023/05/01 06:15:37;;;;;;;9.87;8.97;;;11.00;99.90;;;;;;5009589;28;20652;-80
2023/05/01 06:18:04;;;;;;;11.30;10.20;;;11.00;99.90;;;;;;5034173;28;20290;-81
2023/05/01 06:20:33;;;;;;;9.70;8.80;;;11.10;99.90;;;;;;5026701;28;20229;-80
2023/05/01 06:22:59;;;;;;;10.47;9.20;;;11.10;99.90;;;;;;5008432;28;20211;-79
2023/05/01 06:25:41;;;;;;;10.80;9.80;;;11.10;99.90;;;;;;5009220;28;20200;-78
2023/05/01 06:28:08;;;;;;;11.63;10.53;;;11.10;99.90;;;;;;5008382;28;20219;-80
2023/05/01 06:30:35;;;;;;;11.93;10.83;;;11.20;99.90;;;;;;5008911;28;20199;-81
2023/05/01 06:33:03;;;;;;;11.60;10.60;;;11.20;99.90;;;;;;5033522;28;20218;-81
2023/05/01 06:35:34;;;;;;;11.27;10.30;;;11.20;99.90;;;;;;5009804;28;20203;-79
2023/05/01 06:38:02;;;;;;;11.57;10.57;;;11.30;99.90;;;;;;5008946;28;20940;-80
2023/05/01 06:40:30;;;;;;;11.10;10.20;;;11.30;99.90;;;;;;5026412;28;20209;-80
2023/05/01 06:42:57;;;;;;;10.97;9.97;;;11.40;99.90;;;;;;5008797;28;20253;-79
2023/05/01 06:45:27;;;;;;;10.93;9.90;;;11.60;99.90;;;;;;5009441;28;20208;-80
2023/05/01 06:47:54;;;;;;;10.43;9.50;;;11.70;99.90;;;;;;5034622;28;20238;-80
2023/05/01 06:50:21;;;;;;;10.90;10.00;;;11.80;99.90;;;;;;5008488;28;20214;-79
2023/05/01 06:52:49;;;;;;;11.73;10.73;;;11.90;99.90;;;;;;5008599;28;20609;-80
2023/05/01 06:55:16;;;;;;;10.40;9.50;;;12.00;99.90;;;;;;5038299;28;20201;-81
2023/05/01 06:57:43;;;;;;;7.73;6.93;;;12.20;99.90;;;;;;5013721;28;20224;-81
2023/05/01 07:00:11;;;;;;;8.07;7.13;;;12.20;99.90;;;;;;5040291;28;20204;-81
2023/05/01 07:02:39;;;;;;;7.70;7.00;;;12.30;99.90;;;;;;5007751;28;20204;-82
2023/05/01 07:05:06;;;;;;;7.20;6.50;;;12.30;99.90;;;;;;5008151;28;20195;-79
2023/05/01 07:07:33;;;;;;;9.53;8.63;;;12.30;99.90;;;;;;5007733;28;20251;-80
2023/05/01 07:10:01;;;;;;;9.77;8.87;;;12.30;99.90;;;;;;5025452;28;20231;-78
2023/05/01 07:12:29;;;;;;;10.23;9.40;;;12.30;99.90;;;;;;5006696;28;20215;-80
2023/05/01 07:14:56;;;;;;;8.27;7.43;;;12.30;99.90;;;;;;5008142;28;20196;-79
2023/05/01 07:17:23;;;;;;;7.17;6.47;;;12.30;99.90;;;;;;5023795;28;20230;-80
2023/05/01 07:19:50;;;;;;;7.07;6.37;;;12.30;99.90;;;;;;5008583;28;20255;-79
2023/05/01 07:22:16;;;;;;;7.07;6.37;;;12.30;99.90;;;;;;5008538;28;20188;-80
2023/05/01 07:24:43;;;;;;;7.67;6.87;;;12.30;99.90;;;;;;5007047;28;20204;-79
2023/05/01 07:27:12;;;;;;;7.70;7.00;;;12.40;99.90;;;;;;5007490;28;20224;-79
2023/05/01 07:29:39;;;;;;;7.80;7.00;;;12.50;99.90;;;;;;5008291;28;20233;-79
2023/05/01 07:32:06;;;;;;;7.63;6.83;;;12.60;99.90;;;;;;5008151;28;20229;-78
2023/05/01 07:34:33;;;;;;;8.63;6.30;;;12.70;99.90;;;;;;5026265;28;20201;-79
2023/05/01 07:37:00;;;;;;;7.30;6.60;;;12.80;99.90;;;;;;5007936;28;20365;-80
2023/05/01 07:39:27;;;;;;;6.97;6.27;;;12.80;99.90;;;;;;5020728;28;20193;-79
2023/05/01 07:41:54;;;;;;;8.83;6.70;;;12.70;99.90;;;;;;5008742;28;20201;-80
2023/05/01 07:44:22;;;;;;;7.57;6.87;;;12.70;99.90;;;;;;5033312;28;20204;-80
2023/05/01 07:46:49;;;;;;;7.97;7.10;;;12.70;99.90;;;;;;5007631;28;20196;-80
2023/05/01 07:49:16;;;;;;;7.60;6.80;;;12.70;99.90;;;;;;5026020;28;20212;-80
2023/05/01 07:51:43;;;;;;;7.43;6.53;;;12.60;99.90;;;;;;5026341;28;20208;-80
2023/05/01 07:54:10;;;;;;;7.47;6.67;;;12.60;99.90;;;;;;5008104;28;20218;-79
2023/05/01 07:56:37;;;;;;;7.13;6.27;;;12.60;99.90;;;;;;5010671;28;20215;-80
2023/05/01 07:59:04;;;;;;;7.43;6.63;;;12.70;99.90;;;;;;5011701;28;20207;-80
2023/05/01 08:01:33;;;;;;;7.27;6.57;;;12.70;99.90;;;;;;5027926;28;20213;-81
2023/05/01 08:04:00;;;;;;;7.73;6.93;;;12.70;99.90;;;;;;5025501;28;20252;-80
2023/05/01 08:06:27;;;;;;;7.03;6.13;;;12.80;99.90;;;;;;5026235;28;20207;-79
2023/05/01 08:08:54;;;;;;;6.53;5.93;;;12.70;99.90;;;;;;5024612;28;20701;-79
2023/05/01 08:11:21;;;;;;;7.10;6.40;;;12.80;99.90;;;;;;5008136;28;20209;-79
2023/05/01 08:13:48;;;;;;;7.13;6.43;;;12.90;99.90;;;;;;5025825;28;20236;-78
2023/05/01 08:16:15;;;;;;;7.23;6.53;;;13.00;99.90;;;;;;5025352;28;20242;-79
2023/05/01 08:18:43;;;;;;;8.33;6.53;;;13.00;99.90;;;;;;5028037;28;20224;-81
2023/05/01 08:21:10;;;;;;;7.43;6.17;;;13.10;99.90;;;;;;5013579;28;20201;-81
2023/05/01 08:23:37;;;;;;;7.13;6.47;;;13.20;99.90;;;;;;5015260;28;20201;-81
2023/05/01 08:26:04;;;;;;;6.70;6.10;;;13.30;99.90;;;;;;5019604;28;20201;-81
2023/05/01 08:28:34;;;;;;;9.43;8.63;;;13.50;99.90;;;;;;5014917;28;20227;-79
2023/05/01 08:31:02;;;;;;;7.50;6.80;;;13.60;99.90;;;;;;5002980;28;20205;-80
2023/05/01 08:33:29;;;;;;;8.27;7.00;;;13.80;99.90;;;;;;5020010;28;20292;-79
2023/05/01 08:35:57;;;;;;;8.47;7.43;;;14.00;99.90;;;;;;5005341;28;20344;-80
2023/05/01 08:42:13;;;;;;;7.60;6.80;;;14.60;99.90;;;;;;5020586;28;20225;-80
2023/05/01 08:44:40;;;;;;;7.33;6.63;;;15.00;99.90;;;;;;5018018;28;20211;-79
2023/05/01 08:47:12;;;;;;;7.20;6.60;;;15.20;99.90;;;;;;5023121;28;20776;-79
2023/05/01 08:49:41;;;;;;;9.60;6.83;;;15.30;99.90;;;;;;5025181;28;20193;-80
2023/05/01 08:52:11;;;;;;;7.57;6.77;;;15.60;99.90;;;;;;5019851;28;20276;-79
2023/05/01 08:54:41;;;;;;;7.63;6.93;;;16.00;99.90;;;;;;5030074;28;20200;-78
2023/05/01 08:57:10;;;;;;;6.80;6.10;;;16.30;99.90;;;;;;5025040;28;20646;-77
2023/05/01 08:59:38;;;;;;;6.00;5.40;;;16.50;99.90;;;;;;5015800;28;20278;-78
2023/05/01 09:02:06;;;;;;;7.50;6.00;;;16.70;99.90;;;;;;5007175;28;20204;-83
2023/05/01 09:04:35;;;;;;;7.47;6.70;;;16.70;99.90;;;;;;5013968;28;20687;-83
2023/05/01 09:07:02;;;;;;;7.10;6.40;;;16.60;99.90;;;;;;5029408;28;20229;-83
2023/05/01 09:09:32;;;;;;;5.83;5.30;;;16.70;99.90;;;;;;5023305;28;20229;-81
2023/05/01 09:12:04;;;;;;;6.30;5.70;;;17.00;99.90;;;;;;5013245;28;20210;-81
2023/05/01 09:14:32;;;;;;;6.60;5.90;;;17.30;99.90;;;;;;5027411;28;20227;-79
2023/05/01 09:16:59;;;;;;;7.20;6.13;;;17.40;99.90;;;;;;5015218;28;20290;-81
2023/05/01 09:19:26;;;;;;;6.40;5.80;;;17.30;99.90;;;;;;5030537;28;20203;-80
2023/05/01 09:21:53;;;;;;;6.60;5.47;;;17.60;99.90;;;;;;5021457;28;20199;-81
2023/05/01 09:24:22;;;;;;;6.17;5.57;;;17.70;99.90;;;;;;5019399;28;20200;-80
2023/05/01 09:26:51;;;;;;;6.40;5.70;;;18.00;99.90;;;;;;5025457;28;20202;-80
2023/05/01 09:29:37;;;;;;;5.60;5.10;;;18.20;99.90;;;;;;5020863;28;20200;-81
2023/05/01 09:32:14;;;;;;;5.43;4.93;;;18.40;99.90;;;;;;5019360;28;20575;-81
2023/05/01 09:34:42;;;;;;;6.53;5.87;;;18.70;99.90;;;;;;5020565;28;20284;-82
2023/05/01 09:37:11;;;;;;;5.90;5.30;;;18.90;99.90;;;;;;5016907;28;20719;-81
2023/05/01 09:39:38;;;;;;;5.47;4.93;;;19.00;99.90;;;;;;5019054;28;20221;-84
2023/05/01 09:42:07;;;;;;;5.83;4.97;;;19.20;99.90;;;;;;5019747;28;20196;-83
2023/05/01 09:44:41;;;;;;;5.43;4.83;;;19.30;99.90;;;;;;5021953;28;20196;-83
2023/05/01 09:47:09;;;;;;;5.17;4.67;;;19.40;99.90;;;;;;5008140;28;20230;-81
2023/05/01 09:49:46;;;;;;;5.47;4.97;;;19.60;99.90;;;;;;5020113;28;20676;-83
2023/05/01 09:52:14;;;;;;;5.83;5.27;;;19.70;99.90;;;;;;5019180;28;20212;-81
2023/05/01 09:54:41;;;;;;;5.20;4.70;;;19.70;99.90;;;;;;5019305;28;20228;-81
2023/05/01 09:57:09;;;;;;;5.10;4.60;;;19.90;99.90;;;;;;5007892;28;20800;-82
2023/05/01 09:59:37;;;;;;;5.53;5.03;;;20.20;99.90;;;;;;5015569;28;20205;-84
2023/05/01 10:02:04;;;;;;;12.33;5.73;;;20.40;99.90;;;;;;4997952;28;20205;-82
2023/05/01 10:04:31;;;;;;;7.07;5.50;;;20.60;99.90;;;;;;5018356;28;20221;-82
2023/05/01 10:06:59;;;;;;;5.20;4.70;;;20.80;99.90;;;;;;5009958;28;20439;-83
2023/05/01 10:09:29;;;;;;;4.63;4.20;;;20.80;99.90;;;;;;5013094;28;20435;-82
2023/05/01 10:11:57;;;;;;;4.90;4.50;;;20.90;99.90;;;;;;5010188;28;20431;-82
2023/05/01 10:14:28;;;;;;;5.97;4.33;;;20.90;99.90;;;;;;5016315;28;20216;-83
2023/05/01 10:16:56;;;;;;;5.50;4.67;;;20.80;99.90;;;;;;5005267;28;20228;-82
2023/05/01 10:19:23;;;;;;;6.10;4.97;;;20.70;99.90;;;;;;5013465;28;20192;-82
2023/05/01 10:21:51;;;;;;;5.20;4.50;;;20.30;99.90;;;;;;5012936;28;20250;-82
2023/05/01 10:24:19;;;;;;;4.37;3.97;;;20.10;99.90;;;;;;5012486;28;20197;-82
2023/05/01 10:26:48;;;;;;;5.30;4.37;;;20.00;99.90;;;;;;5011769;28;20201;-80
2023/05/01 10:29:16;;;;;;;4.73;4.30;;;20.00;99.90;;;;;;4992897;28;20200;-83
2023/05/01 10:31:44;;;;;;;4.50;4.10;;;19.80;99.90;;;;;;4987439;28;20403;-80
2023/05/01 10:34:15;;;;;;;4.77;4.37;;;19.80;99.90;;;;;;5005809;28;20216;-85
2023/05/01 10:36:45;;;;;;;6.17;4.77;;;19.80;99.90;;;;;;4976916;28;20233;-84
2023/05/01 10:39:30;;;;;;;4.93;4.43;;;19.90;99.90;;;;;;5001390;28;20193;-82
2023/05/01 10:42:04;;;;;;;5.40;4.90;;;19.90;99.90;;;;;;5001304;28;20239;-82
2023/05/01 10:44:34;;;;;;;5.10;4.60;;;19.80;99.90;;;;;;5002223;28;20218;-83
2023/05/01 10:47:47;;;;;;;4.37;3.97;;;19.70;99.90;;;;;;4995245;28;20315;-81
2023/05/01 10:50:14;;;;;;;4.47;4.07;;;19.60;99.90;;;;;;4999542;28;20255;-81
2023/05/01 10:53:18;;;;;;;4.37;3.90;;;19.60;99.90;;;;;;5011373;28;20283;-81
2023/05/01 10:55:48;;;;;;;4.77;4.27;;;19.60;99.90;;;;;;5001390;28;20672;-80
2023/05/01 10:58:53;;;;;;;4.00;3.70;;;19.50;99.90;;;;;;4986044;28;20220;-82
2023/05/01 11:01:31;;;;;;;6.40;4.43;;;19.60;99.90;;;;;;5022918;28;20219;-82
2023/05/01 11:04:02;;;;;;;4.40;4.00;;;19.40;99.90;;;;;;4998452;28;20618;-82
2023/05/01 11:06:30;;;;;;;4.17;3.77;;;19.30;99.90;;;;;;5019781;28;20232;-82
2023/05/01 11:08:57;;;;;;;7.63;7.03;;;19.20;99.90;;;;;;5007523;28;20648;-80
2023/05/01 11:11:48;;;;;;;6.93;6.33;;;19.00;99.90;;;;;;4990193;28;20287;-82
2023/05/01 11:14:15;;;;;;;7.87;7.20;;;18.90;99.90;;;;;;5010938;28;20228;-82
2023/05/01 11:16:45;;;;;;;8.77;8.17;;;18.60;99.90;;;;;;5008598;28;20199;-83
2023/05/01 11:19:48;;;;;;;8.40;7.80;;;18.50;99.90;;;;;;5010535;28;20224;-82
2023/05/01 11:22:15;;;;;;;8.77;8.17;;;18.30;99.90;;;;;;5009795;28;20212;-81
2023/05/01 11:24:42;;;;;;;8.77;8.10;;;18.20;99.90;;;;;;5010839;28;20278;-82
2023/05/01 11:27:17;;;;;;;8.73;8.13;;;18.10;99.90;;;;;;5014276;28;20213;-82
2023/05/01 11:29:49;;;;;;;7.93;7.20;;;18.00;99.90;;;;;;5002319;28;20633;-82
2023/05/01 11:32:22;;;;;;;7.23;6.63;;;18.00;99.90;;;;;;5000858;28;20296;-82
2023/05/01 11:34:51;;;;;;;7.63;7.03;;;18.00;99.90;;;;;;5006088;28;20232;-83
2023/05/01 11:37:17;;;;;;;7.43;6.47;;;17.90;99.90;;;;;;4997946;28;20652;-81
2023/05/01 11:39:52;;;;;;;6.50;6.00;;;17.90;99.90;;;;;;5013993;28;20219;-82
2023/05/01 11:42:22;;;;;;;5.23;4.83;;;18.00;99.90;;;;;;5009322;28;20211;-83
2023/05/01 11:45:10;;;;;;;5.77;4.83;;;18.20;99.90;;;;;;5016706;28;20199;-83
2023/05/01 11:47:37;;;;;;;4.83;4.43;;;18.30;99.90;;;;;;5018699;28;20253;-83
2023/05/01 11:50:07;;;;;;;5.33;4.90;;;18.40;99.90;;;;;;5001866;28;20673;-82
2023/05/01 11:52:45;;;;;;;4.90;4.50;;;18.60;99.90;;;;;;4999822;28;20579;-79
2023/05/01 11:55:12;;;;;;;4.90;4.50;;;18.80;99.90;;;;;;5010181;28;20220;-79
2023/05/01 11:57:47;;;;;;;5.13;4.63;;;18.80;99.90;;;;;;5010971;28;20251;-79
2023/05/01 12:00:15;;;;;;;5.03;4.63;;;18.90;99.90;;;;;;5009271;28;20200;-79
2023/05/01 12:02:55;;;;;;;6.77;6.27;;;18.70;99.90;;;;;;5012057;28;20228;-79
2023/05/01 12:05:24;;;;;;;7.72;7.13;;;18.70;99.90;;;;;;4996957;28;20442;-79
2023/05/01 12:07:51;;;;;;;6.63;6.13;;;18.60;99.90;;;;;;5004071;28;20266;-81
2023/05/01 12:10:18;;;;;;;4.23;3.93;;;18.80;99.90;;;;;;5012226;28;20208;-81
2023/05/01 12:12:45;;;;;;;5.00;4.60;;;18.90;99.90;;;;;;5004206;28;20215;-81
2023/05/01 12:15:12;;;;;;;7.07;6.47;;;19.10;99.90;;;;;;5016960;28;20216;-77
2023/05/01 12:17:40;;;;;;;7.20;6.70;;;19.20;99.90;;;;;;5004675;28;20229;-81
2023/05/01 12:20:08;;;;;;;6.70;6.20;;;19.30;99.90;;;;;;5005889;28;20443;-82
2023/05/01 12:22:49;;;;;;;5.27;4.87;;;19.60;99.90;;;;;;5007482;28;20202;-85
2023/05/01 12:25:16;;;;;;;4.60;4.20;;;19.90;99.90;;;;;;5016824;28;20434;-80
2023/05/01 12:27:43;;;;;;;3.13;2.93;;;20.00;99.90;;;;;;5009875;28;20596;-83
2023/05/01 12:30:11;;;;;;;3.63;3.40;;;20.30;99.90;;;;;;5018222;28;20619;-79
2023/05/01 12:32:39;;;;;;;4.27;3.87;;;20.40;99.90;;;;;;5008395;28;20204;-79
2023/05/01 12:35:14;;;;;;;5.00;4.50;;;20.40;99.90;;;;;;5007666;28;20216;-78
2023/05/01 12:37:42;;;;;;;4.63;4.13;;;20.50;99.90;;;;;;5020351;28;20304;-80
2023/05/01 12:40:13;;;;;;;4.00;3.70;;;20.50;99.90;;;;;;5006818;28;20946;-78
2023/05/01 12:42:40;;;;;;;3.60;3.30;;;20.70;99.90;;;;;;5004850;28;20211;-79
2023/05/01 12:45:13;;;;;;;3.60;3.40;;;20.80;99.90;;;;;;5003038;28;20200;-79
2023/05/01 12:47:40;;;;;;;4.10;3.70;;;20.70;99.90;;;;;;5012565;28;20223;-79
2023/05/01 12:50:08;;;;;;;3.83;3.53;;;20.70;99.90;;;;;;5016063;28;20196;-79
2023/05/01 12:52:35;;;;;;;3.50;3.20;;;20.70;99.90;;;;;;5021662;28;20429;-84
2023/05/01 12:55:06;;;;;;;3.75;3.45;;;20.70;99.90;;;;;;5008911;28;20503;-84
2023/05/01 12:57:33;;;;;;;3.70;3.40;;;20.80;99.90;;;;;;5010551;28;20224;-85
2023/05/01 13:00:03;;;;;;;4.40;4.00;;;20.60;99.90;;;;;;4995666;28;20204;-82